METAR Data
IDs: Format: Raw Decoded Include TAF

Data at: 2021 UTC 19 Jan 2019

VTUK 192000Z 01002KT 7000 NSC 22/17 Q1013 NOSIG
VTUK 191900Z 01003KT 7000 NSC 22/17 Q1013 NOSIG
VTUK 191800Z 33003KT 8000 NSC 21/18 Q1014 NOSIG
VTUK 191700Z 20002KT 8000 NSC 23/18 Q1014 NOSIG
VTUK 191600Z 02003KT 8000 FEW035 BKN100 25/17 Q1014 NOSIG
VTUK 191500Z 01003KT 8000 FEW035 SCT100 25/17 Q1014 NOSIG
VTUK 191400Z 03002KT 8000 FEW035 BKN100 25/18 Q1014 NOSIG
VTUK 191300Z 10003KT 8000 FEW035 BKN100 26/18 Q1013 NOSIG
VTUK 191200Z 28003KT 8000 FEW035 BKN100 27/17 Q1012 NOSIG
VTUK 191100Z VRB01KT 9000 FEW035 BKN100 28/17 Q1012 NOSIG
VTUK 191000Z VRB02KT 9999 FEW035 BKN100 30/17 Q1011 NOSIG
VTUK 190900Z VRB03KT 9999 FEW035 SCT100 33/16 Q1011 NOSIG
VTUK 190800Z VRB03KT 9999 FEW035 SCT100 32/17 Q1011 NOSIG
VTUK 190700Z VRB04KT CAVOK 31/16 Q1012 NOSIG
VTUK 190600Z VRB05KT CAVOK 30/16 Q1013 NOSIG
VTUK 190500Z 01005KT 300V090 9999 FEW035 SCT100 28/17 Q1015 NOSIG
VTUK 190400Z 36004KT 270V060 9000 SCT035 SCT100 25/16 Q1016 NOSIG
VTUK 190300Z 05005KT 350V090 9000 SCT035 SCT100 25/16 Q1017 NOSIG
VTUK 190200Z 05005KT 340V110 8000 SCT035 SCT100 25/16 Q1017 NOSIG
VTUK 190100Z 03005KT 360V060 6000 SCT035 21/16 Q1016 NOSIG
VTUK 190000Z 35003KT 310V010 6000 SCT030 BKN100 19/16 Q1015 NOSIG
VTUK 182300Z 01004KT 8000 SCT035 20/16 Q1015 NOSIG
VTUK 182200Z 03004KT 8000 NSC 20/16 Q1014 NOSIG
VTUK 182100Z 35005KT 8000 NSC 20/16 Q1014 NOSIG
VTUK 182000Z 06005KT 8000 NSC 21/16 Q1014 NOSIG
VTUK 181900Z 01003KT 8000 NSC 21/16 Q1014 NOSIG
VTUK 181800Z 08003KT 8000 NSC 22/16 Q1015 NOSIG
VTUK 181700Z 05005KT 8000 FEW035 SCT100 23/16 Q1015 NOSIG
VTUK 181500Z 05005KT 8000 FEW035 SCT100 25/16 Q1015 NOSIG
VTUK 181400Z 00000KT 9000 FEW035 BKN100 24/16 Q1015 NOSIG
VTUK 181300Z 36002KT 9999 FEW035 BKN100 23/16 Q1015 NOSIG
VTUK 181200Z 08003KT 050V110 9999 FEW035 25/15 Q1014 NOSIG
VTUK 181100Z 08003KT 040V130 9999 FEW035 27/15 Q1013 NOSIG
VTUK 181000Z 10004KT 060V160 9999 FEW040 29/15 Q1013 NOSIG
VTUK 180900Z 09004KT 030V180 9999 FEW040 30/15 Q1012 NOSIG

VTUD 191500Z 00000KT CAVOK 24/18 Q1014 NOSIG
VTUD 191400Z 00000KT CAVOK 24/17 Q1014 NOSIG
VTUD 191300Z 34003KT CAVOK 27/17 Q1013 NOSIG
VTUD 191200Z 34005KT CAVOK 28/17 Q1013 NOSIG
VTUD 191100Z 00000KT CAVOK 30/15 Q1012 NOSIG
VTUD 191000Z 35004KT 300V060 CAVOK 31/16 Q1012 NOSIG
VTUD 190900Z 03005KT 290V100 9999 FEW045 31/16 Q1011 NOSIG
VTUD 190800Z VRB05KT 9999 FEW045 32/16 Q1012 NOSIG
VTUD 190700Z 10006KT 010V150 CAVOK 31/16 Q1013 NOSIG
VTUD 190600Z 06006KT 310V100 CAVOK 30/16 Q1014 NOSIG
VTUD 190500Z 09007KT 040V120 CAVOK 30/16 Q1015 NOSIG
VTUD 190400Z 09007KT 050V130 CAVOK 29/16 Q1016 NOSIG
VTUD 190300Z 07006KT 020V130 CAVOK 26/17 Q1017 NOSIG
VTUD 190200Z 08005KT 040V130 CAVOK 24/16 Q1017 NOSIG
VTUD 190100Z VRB01KT CAVOK 20/17 Q1016 NOSIG
VTUD 190000Z 00000KT CAVOK 18/16 Q1016 NOSIG
VTUD 182300Z 00000KT CAVOK 19/16 Q1015 NOSIG
VTUD 182200Z 02003KT CAVOK 20/16 Q1015 NOSIG
VTUD 181500Z 00000KT CAVOK 22/15 Q1016 NOSIG
VTUD 181400Z 00000KT 9999 FEW040 BKN080 23/16 Q1016 NOSIG
VTUD 181300Z VRB01KT CAVOK 24/15 Q1015 NOSIG
VTUD 181200Z 00000KT CAVOK 23/15 Q1014 NOSIG
VTUD 181100Z VRB02KT CAVOK 26/15 Q1014 NOSIG
VTUD 181000Z 12005KT 090V150 CAVOK 28/15 Q1013 NOSIG
VTUD 180900Z 05005KT 010V130 CAVOK 29/15 Q1013 NOSIG

VTUL 191200Z VRB03KT 9999 FEW030 24/18 Q1013 NOSIG
VTUL 191100Z 00000KT 9999 FEW030 26/18 Q1012 NOSIG
VTUL 191000Z 00000KT 9999 SCT030 30/15 Q1012 NOSIG
VTUL 190900Z 01003KT 280V070 9999 FEW030 31/16 Q1012 NOSIG
VTUL 190800Z VRB02KT 9999 FEW030 31/16 Q1012 NOSIG
VTUL 190700Z VRB05KT 9999 FEW030 30/16 Q1013 NOSIG
VTUL 190600Z VRB03KT 9999 FEW030 29/17 Q1014 NOSIG
VTUL 190500Z VRB03KT 9999 FEW030 28/16 Q1016 NOSIG
VTUL 190400Z VRB03KT CAVOK 27/17 Q1017 NOSIG
VTUL 190300Z VRB04KT CAVOK 25/17 Q1018 NOSIG
VTUL 190200Z VRB02KT 9999 FEW030 22/17 Q1018 NOSIG
VTUL 190100Z VRB02KT 9999 FEW030 18/17 Q1017 NOSIG
VTUL 190000Z 00000KT 9999 FEW030 16/15 Q1016 NOSIG
VTUL 182300Z 00000KT 8000 FEW030 16/16 Q1016 NOSIG
VTUL 181200Z 00000KT 9000 FEW030 22/17 Q1015 NOSIG
VTUL 180900Z 13005KT 080V230 9999 FEW030 28/15 Q1013 NOSIG

VTUI 191400Z 11003KT 9999 FEW040 SCT100 26/19 Q1014 NOSIG
VTUI 191300Z 09002KT 9999 FEW040 BKN100 26/19 Q1013 NOSIG
VTUI 191200Z VRB02KT 9999 FEW040 BKN100 27/17 Q1012 NOSIG
VTUI 191100Z 13003KT 9999 FEW040 SCT100 28/18 Q1012 NOSIG
VTUI 191000Z 15003KT 100V170 9999 FEW040 BKN100 30/16 Q1011 NOSIG
VTUI 190900Z 15003KT 090V250 9999 FEW040 SCT100 30/16 Q1011 NOSIG
VTUI 190800Z VRB05KT CAVOK 31/16 Q1011 NOSIG
VTUI 190700Z 14005KT 080V200 CAVOK 30/17 Q1012 NOSIG
VTUI 190600Z VRB05KT CAVOK 28/16 Q1013 NOSIG
VTUI 190500Z 14005KT 090V230 CAVOK 27/17 Q1015 NOSIG
VTUI 190400Z VRB04KT CAVOK 26/17 Q1016 NOSIG
VTUI 190300Z 14006KT 100V190 9999 FEW040 24/16 Q1017 NOSIG
VTUI 190200Z 14004KT 090V170 9999 FEW040 22/16 Q1017 NOSIG
VTUI 190100Z 18003KT 140V230 9999 FEW040 21/16 Q1016 NOSIG
VTUI 190000Z 14003KT 9999 FEW040 SCT100 19/16 Q1016 NOSIG
VTUI 182300Z 20002KT 9999 FEW040 SCT100 19/16 Q1015 NOSIG
VTUI 181500Z 11008KT 080V140 CAVOK 22/16 Q1017 NOSIG
VTUI 181400Z 10011KT CAVOK 23/16 Q1016 NOSIG
VTUI 181300Z 10009KT CAVOK 24/16 Q1015 NOSIG
VTUI 181200Z 10008KT CAVOK 25/17 Q1014 NOSIG
VTUI 181100Z 12008KT CAVOK 26/17 Q1014 NOSIG
VTUI 181000Z 11005KT 070V150 CAVOK 28/16 Q1013 NOSIG
VTUI 180900Z 10004KT 060V180 CAVOK 28/15 Q1013 NOSIG

VTUW 191300Z 11008KT 9999 FEW045 BKN100 26/17 Q1014 NOSIG
VTUW 191200Z 12008KT 9999 FEW045 SCT100 27/17 Q1013 NOSIG
VTUW 191100Z 12007KT 9999 FEW045 BKN100 28/17 Q1012 NOSIG
VTUW 191000Z 13007KT 100V160 9999 FEW045 BKN100 30/16 Q1012 NOSIG
VTUW 190900Z 11005KT 070V180 9999 FEW045 31/16 Q1011 NOSIG
VTUW 190800Z 12007KT 060V160 9999 FEW045 31/16 Q1011 NOSIG
VTUW 190700Z VRB05KT 9999 FEW045 31/17 Q1012 NOSIG
VTUW 190600Z 13008KT 080V190 CAVOK 30/17 Q1013 NOSIG
VTUW 190500Z 09005KT 050V200 CAVOK 28/16 Q1014 NOSIG
VTUW 190400Z 10006KT 360V140 9999 FEW048 27/17 Q1016 NOSIG
VTUW 190300Z 09005KT 040V160 9999 FEW048 26/17 Q1017 NOSIG
VTUW 190200Z VRB02KT 9000 FEW048 BKN100 23/16 Q1017 NOSIG
VTUW 190100Z VRB02KT 8000 FEW045 BKN080 20/16 Q1016 NOSIG
VTUW 181400Z 13006KT CAVOK 21/16 Q1016 NOSIG
VTUW 181300Z 12007KT CAVOK 22/16 Q1016 NOSIG
VTUW 181200Z 12009KT CAVOK 23/16 Q1015 NOSIG
VTUW 181100Z 13011KT CAVOK 25/16 Q1015 NOSIG
VTUW 181000Z 12012KT CAVOK 27/16 Q1014 NOSIG
VTUW 180900Z 13011KT 090V150 9999 FEW048 28/16 Q1013 NOSIG